createdAt,value
2019-01-13T00:01:38.585Z,20.27
2019-01-13T00:04:05.106Z,20.87
2019-01-13T00:06:31.522Z,24.23
2019-01-13T00:08:57.891Z,18.80
2019-01-13T00:11:24.354Z,24.30
2019-01-13T00:13:50.744Z,17.17
2019-01-13T00:16:17.244Z,16.83
2019-01-13T00:18:43.549Z,18.77
2019-01-13T00:21:10.049Z,18.60
2019-01-13T00:23:36.381Z,20.27
2019-01-13T00:26:02.799Z,17.63
2019-01-13T00:28:30.139Z,21.20
2019-01-13T00:30:56.524Z,20.70
2019-01-13T00:33:22.903Z,23.50
2019-01-13T00:35:49.274Z,21.87
2019-01-13T00:38:15.839Z,19.73
2019-01-13T00:40:42.184Z,24.33
2019-01-13T00:43:08.629Z,27.70
2019-01-13T00:45:34.960Z,22.27
2019-01-13T00:48:01.341Z,20.97
2019-01-13T00:50:27.710Z,22.73
2019-01-13T00:52:54.043Z,18.37
2019-01-13T00:55:20.426Z,18.40
2019-01-13T00:57:46.786Z,18.27
2019-01-13T01:00:26.170Z,18.70
2019-01-13T01:02:47.469Z,19.70
2019-01-13T01:05:13.908Z,21.43
2019-01-13T01:07:40.317Z,17.80
2019-01-13T01:10:09.732Z,20.27
2019-01-13T01:12:36.179Z,18.30
2019-01-13T01:15:05.276Z,17.53
2019-01-13T01:17:31.766Z,15.43
2019-01-13T01:19:58.192Z,16.93
2019-01-13T01:22:24.623Z,18.07
2019-01-13T01:24:51.038Z,18.63
2019-01-13T01:27:17.522Z,32.57
2019-01-13T01:29:44.031Z,21.50
2019-01-13T01:32:10.514Z,18.83
2019-01-13T01:34:37.051Z,15.93
2019-01-13T01:37:03.494Z,19.93
2019-01-13T01:39:29.982Z,18.23
2019-01-13T01:41:56.399Z,21.40
2019-01-13T01:44:22.840Z,22.77
2019-01-13T01:46:49.253Z,20.87
2019-01-13T01:49:15.730Z,22.87
2019-01-13T01:51:42.163Z,22.70
2019-01-13T01:54:08.689Z,20.20
2019-01-13T01:56:35.154Z,23.83
2019-01-13T01:59:01.587Z,23.77
2019-01-13T02:01:28.010Z,19.93
2019-01-13T02:03:54.467Z,18.83
2019-01-13T02:06:20.998Z,20.57
2019-01-13T02:08:47.411Z,23.53
2019-01-13T02:11:14.107Z,21.63
2019-01-13T02:13:40.596Z,25.40
2019-01-13T02:16:06.997Z,23.23
2019-01-13T02:18:34.508Z,24.97
2019-01-13T02:21:01.109Z,32.87
2019-01-13T02:23:27.562Z,26.50
2019-01-13T02:25:54.005Z,30.27
2019-01-13T02:28:20.384Z,26.77
2019-01-13T02:30:49.339Z,25.77
2019-01-13T02:33:15.205Z,27.03
2019-01-13T02:35:41.550Z,27.20
2019-01-13T02:38:08.040Z,28.77
2019-01-13T02:40:34.475Z,29.07
2019-01-13T02:43:00.910Z,28.03
2019-01-13T02:45:27.365Z,27.30
2019-01-13T02:47:53.771Z,33.10
2019-01-13T02:50:20.198Z,26.80
2019-01-13T02:52:46.600Z,28.07
2019-01-13T02:55:13.089Z,26.43
2019-01-13T02:57:39.615Z,26.67
2019-01-13T03:00:12.584Z,21.93
2019-01-13T03:02:39.079Z,21.97
2019-01-13T03:05:08.025Z,31.80
2019-01-13T03:07:34.659Z,24.50
2019-01-13T03:10:01.296Z,25.40
2019-01-13T03:12:27.817Z,22.30
2019-01-13T03:14:54.226Z,20.33
2019-01-13T03:17:20.717Z,27.87
2019-01-13T03:19:47.190Z,18.63
2019-01-13T03:22:14.702Z,16.93
2019-01-13T03:24:41.227Z,19.13
2019-01-13T03:27:07.717Z,18.07
2019-01-13T03:29:34.182Z,22.93
2019-01-13T03:32:00.669Z,19.27
2019-01-13T03:34:27.181Z,17.63
2019-01-13T03:36:53.658Z,18.43
2019-01-13T03:39:20.025Z,19.53
2019-01-13T03:41:46.682Z,17.67
2019-01-13T03:44:13.132Z,23.53
2019-01-13T03:46:39.612Z,16.93
2019-01-13T03:49:06.027Z,17.07
2019-01-13T03:51:32.558Z,16.83
2019-01-13T03:53:59.018Z,18.03
2019-01-13T03:56:25.382Z,19.07
2019-01-13T03:58:51.936Z,16.83
2019-01-13T04:01:18.782Z,17.50
2019-01-13T04:03:45.404Z,18.57
2019-01-13T04:06:11.777Z,15.63
2019-01-13T04:08:38.291Z,16.67
2019-01-13T04:11:04.714Z,16.73
2019-01-13T04:13:31.186Z,11.77
2019-01-13T04:15:57.585Z,12.13
2019-01-13T04:18:24.018Z,15.50
2019-01-13T04:20:50.455Z,13.23
2019-01-13T04:23:16.839Z,13.30
2019-01-13T04:25:43.313Z,13.87
2019-01-13T04:28:09.755Z,13.00
2019-01-13T04:30:36.248Z,12.83
2019-01-13T04:33:02.784Z,11.40
2019-01-13T04:35:29.339Z,15.37
2019-01-13T04:37:55.759Z,11.40
2019-01-13T04:40:22.086Z,10.30
2019-01-13T04:42:48.464Z,9.37
2019-01-13T04:45:14.830Z,9.10
2019-01-13T04:47:41.292Z,10.17
2019-01-13T04:50:12.220Z,13.73
2019-01-13T04:52:38.645Z,10.90
2019-01-13T04:55:05.387Z,10.30
2019-01-13T04:57:31.764Z,8.87
2019-01-13T04:59:58.142Z,9.23
2019-01-13T05:02:25.131Z,12.77
2019-01-13T05:04:51.483Z,15.37
2019-01-13T05:07:17.934Z,12.13
2019-01-13T05:09:44.397Z,11.00
2019-01-13T05:12:10.782Z,11.43
2019-01-13T05:14:37.167Z,13.60
2019-01-13T05:17:03.514Z,13.47
2019-01-13T05:19:29.945Z,7.40
2019-01-13T05:21:56.244Z,9.90
2019-01-13T05:24:22.641Z,9.27
2019-01-13T05:26:49.051Z,10.23
2019-01-13T05:29:15.460Z,7.73
2019-01-13T05:31:42.352Z,11.73
2019-01-13T05:34:08.789Z,9.43
2019-01-13T05:36:35.149Z,14.80
2019-01-13T05:39:01.541Z,11.23
2019-01-13T05:41:28.554Z,8.03
2019-01-13T05:43:54.977Z,11.00
2019-01-13T05:46:21.337Z,10.40
2019-01-13T05:48:47.728Z,14.00
2019-01-13T05:51:14.179Z,7.07
2019-01-13T05:53:40.519Z,11.30
2019-01-13T05:56:06.909Z,14.23
2019-01-13T05:58:33.339Z,11.70
2019-01-13T06:00:59.860Z,13.97
2019-01-13T06:03:26.293Z,13.07
2019-01-13T06:05:52.700Z,9.87
2019-01-13T06:08:19.069Z,7.27
2019-01-13T06:10:45.544Z,14.17
2019-01-13T06:13:11.985Z,11.97
2019-01-13T06:15:38.317Z,10.00
2019-01-13T06:18:04.764Z,6.90
2019-01-13T06:20:31.101Z,9.20
2019-01-13T06:22:58.508Z,13.63
2019-01-13T06:25:24.917Z,8.77
2019-01-13T06:27:51.300Z,10.67
2019-01-13T06:30:19.359Z,7.80
2019-01-13T06:32:45.617Z,11.37
2019-01-13T06:35:12.023Z,9.17
2019-01-13T06:37:38.451Z,10.13
2019-01-13T06:40:08.350Z,6.87
2019-01-13T06:42:34.699Z,10.40
2019-01-13T06:45:01.065Z,6.27
2019-01-13T06:47:27.428Z,5.53
2019-01-13T06:49:53.820Z,7.70
2019-01-13T06:52:20.279Z,8.20
2019-01-13T06:54:46.716Z,10.70
2019-01-13T06:57:13.071Z,14.03
2019-01-13T06:59:39.461Z,10.87
2019-01-13T07:02:05.857Z,10.87
2019-01-13T07:04:32.314Z,8.87
2019-01-13T07:06:58.714Z,7.93
2019-01-13T07:09:25.061Z,7.30
2019-01-13T07:11:51.475Z,6.97
2019-01-13T07:14:17.835Z,8.30
2019-01-13T07:16:44.266Z,10.30
2019-01-13T07:19:10.655Z,8.40
2019-01-13T07:21:37.146Z,6.80
2019-01-13T07:24:03.572Z,7.17
2019-01-13T07:26:30.010Z,6.43
2019-01-13T07:28:56.429Z,6.93
2019-01-13T07:31:22.909Z,6.57
2019-01-13T07:33:49.263Z,9.13
2019-01-13T07:36:15.710Z,10.33
2019-01-13T07:38:42.101Z,7.47
2019-01-13T07:41:08.657Z,8.87
2019-01-13T07:43:35.069Z,5.73
2019-01-13T07:46:01.783Z,9.03
2019-01-13T07:48:28.530Z,10.63
2019-01-13T07:50:55.091Z,8.43
2019-01-13T07:53:21.588Z,6.17
2019-01-13T07:55:48.188Z,9.50
2019-01-13T07:58:14.941Z,9.27
2019-01-13T08:00:41.733Z,9.97
2019-01-13T08:03:09.348Z,13.57
2019-01-13T08:05:35.996Z,10.23
2019-01-13T08:08:02.713Z,7.40
2019-01-13T08:10:29.244Z,5.83
2019-01-13T08:12:55.735Z,6.03
2019-01-13T08:15:22.135Z,5.17
2019-01-13T08:17:48.608Z,5.67
2019-01-13T08:20:21.300Z,8.63
2019-01-13T08:22:47.771Z,6.73
2019-01-13T08:25:14.206Z,6.33
2019-01-13T08:27:40.609Z,9.03
2019-01-13T08:30:18.126Z,5.67
2019-01-13T08:32:44.512Z,10.97
2019-01-13T08:35:10.902Z,8.77
2019-01-13T08:37:37.279Z,8.87
2019-01-13T08:40:07.454Z,7.40
2019-01-13T08:42:33.862Z,5.90
2019-01-13T08:45:00.267Z,8.73
2019-01-13T08:47:26.871Z,6.77
2019-01-13T08:49:53.391Z,9.23
2019-01-13T08:52:20.335Z,8.37
2019-01-13T08:54:46.735Z,7.33
2019-01-13T08:57:14.602Z,7.17
2019-01-13T08:59:41.236Z,7.13
2019-01-13T09:02:07.687Z,9.90
2019-01-13T09:04:34.041Z,7.73
2019-01-13T09:07:00.419Z,11.63
2019-01-13T09:09:26.809Z,9.00
2019-01-13T09:11:53.270Z,6.97
2019-01-13T09:14:19.942Z,10.23
2019-01-13T09:16:46.509Z,8.60
2019-01-13T09:19:13.282Z,7.27
2019-01-13T09:21:39.686Z,9.53
2019-01-13T09:24:06.385Z,7.07
2019-01-13T09:26:33.502Z,6.90
2019-01-13T09:29:00.372Z,7.63
2019-01-13T09:31:26.816Z,6.33
2019-01-13T09:33:53.351Z,9.27
2019-01-13T09:36:20.573Z,11.00
2019-01-13T09:38:47.203Z,14.20
2019-01-13T09:41:13.720Z,12.40
2019-01-13T09:43:40.394Z,9.23
2019-01-13T09:46:07.101Z,12.73
2019-01-13T09:48:33.709Z,12.07
2019-01-13T09:51:00.380Z,9.97
2019-01-13T09:53:27.060Z,10.90
2019-01-13T09:55:53.740Z,9.57
2019-01-13T09:58:20.513Z,11.77
2019-01-13T10:00:47.178Z,10.80
2019-01-13T10:03:13.722Z,11.93
2019-01-13T10:05:40.348Z,10.57
2019-01-13T10:08:07.021Z,12.23
2019-01-13T10:10:33.508Z,11.13
2019-01-13T10:13:00.058Z,8.77
2019-01-13T10:15:26.665Z,9.50
2019-01-13T10:17:53.238Z,12.63
2019-01-13T10:20:19.701Z,25.23
2019-01-13T10:22:46.080Z,17.63
2019-01-13T10:25:12.449Z,7.10
2019-01-13T10:27:38.825Z,13.27
2019-01-13T10:30:11.466Z,13.43
2019-01-13T10:32:37.946Z,10.30
2019-01-13T10:35:07.041Z,7.30
2019-01-13T10:37:33.456Z,8.30
2019-01-13T10:39:59.973Z,8.00
2019-01-13T10:42:26.338Z,10.37
2019-01-13T10:44:52.717Z,11.70
2019-01-13T10:47:19.246Z,8.23
2019-01-13T10:49:45.617Z,9.50
2019-01-13T10:52:12.007Z,7.90
2019-01-13T10:54:38.371Z,9.37
2019-01-13T10:57:04.839Z,7.67
2019-01-13T10:59:32.449Z,8.37
2019-01-13T11:01:58.871Z,6.30
2019-01-13T11:04:25.216Z,5.63
2019-01-13T11:06:51.626Z,7.13
2019-01-13T11:09:17.957Z,8.23
2019-01-13T11:11:44.372Z,5.80
2019-01-13T11:14:10.703Z,6.37
2019-01-13T11:16:37.154Z,7.10
2019-01-13T11:19:03.529Z,8.40
2019-01-13T11:21:29.958Z,5.13
2019-01-13T11:23:56.350Z,5.53
2019-01-13T11:26:22.764Z,7.03
2019-01-13T11:28:49.350Z,4.20
2019-01-13T11:31:15.801Z,6.50
2019-01-13T11:33:42.388Z,5.87
2019-01-13T11:36:08.929Z,5.83
2019-01-13T11:38:35.525Z,5.37
2019-01-13T11:41:02.146Z,5.77
2019-01-13T11:43:28.563Z,2.67
2019-01-13T11:45:55.128Z,5.77
2019-01-13T11:48:21.478Z,5.60
2019-01-13T11:50:48.168Z,4.50
2019-01-13T11:53:14.684Z,4.20
2019-01-13T11:55:41.148Z,4.27
2019-01-13T11:58:07.775Z,3.90
2019-01-13T12:00:36.538Z,4.47
2019-01-13T12:03:06.791Z,4.93
2019-01-13T12:05:31.525Z,3.87
2019-01-13T12:07:58.073Z,6.90
2019-01-13T12:10:24.430Z,4.73
2019-01-13T12:12:50.896Z,8.10
2019-01-13T12:15:19.142Z,4.87
2019-01-13T12:17:45.582Z,5.80
2019-01-13T12:20:15.085Z,4.73
2019-01-13T12:22:41.469Z,6.37
2019-01-13T12:25:10.954Z,7.40
2019-01-13T12:27:37.505Z,7.50
2019-01-13T12:30:13.631Z,3.93
2019-01-13T12:32:40.177Z,5.07
2019-01-13T12:35:06.578Z,7.77
2019-01-13T12:37:32.964Z,7.67
2019-01-13T12:39:59.380Z,8.17
2019-01-13T12:42:27.364Z,6.27
2019-01-13T12:44:53.927Z,6.23
2019-01-13T12:47:20.281Z,3.50
2019-01-13T12:49:46.740Z,7.57
2019-01-13T12:52:13.143Z,10.50
2019-01-13T12:54:39.647Z,5.20
2019-01-13T12:57:06.018Z,10.50
2019-01-13T12:59:33.072Z,4.83
2019-01-13T13:01:59.547Z,9.03
2019-01-13T13:04:25.988Z,6.37
2019-01-13T13:06:52.291Z,4.90
2019-01-13T13:09:18.711Z,7.70
2019-01-13T13:11:45.097Z,13.27
2019-01-13T13:14:11.459Z,10.20
2019-01-13T13:16:37.884Z,8.47
2019-01-13T13:19:04.368Z,8.13
2019-01-13T13:21:30.828Z,11.70
2019-01-13T13:23:57.213Z,11.27
2019-01-13T13:26:23.784Z,7.40
2019-01-13T13:28:50.208Z,11.50
2019-01-13T13:31:16.650Z,14.93
2019-01-13T13:33:43.203Z,10.13
2019-01-13T13:36:10.214Z,8.27
2019-01-13T13:38:37.370Z,17.77
2019-01-13T13:41:03.883Z,10.67
2019-01-13T13:43:30.604Z,8.77
2019-01-13T13:45:57.052Z,10.40
2019-01-13T13:48:23.470Z,8.93
2019-01-13T13:50:49.864Z,8.03
2019-01-13T13:53:16.257Z,11.17
2019-01-13T13:55:42.786Z,11.13
2019-01-13T13:58:09.148Z,16.47
2019-01-13T14:00:35.663Z,10.50
2019-01-13T14:03:02.173Z,9.40
2019-01-13T14:05:28.654Z,9.47
2019-01-13T14:07:55.095Z,15.43
2019-01-13T14:10:24.436Z,9.70
2019-01-13T14:12:50.856Z,13.80
2019-01-13T14:15:17.301Z,9.13
2019-01-13T14:17:43.737Z,13.97
2019-01-13T14:20:13.567Z,15.60
2019-01-13T14:22:40.477Z,10.70
2019-01-13T14:25:06.823Z,14.13
2019-01-13T14:27:33.776Z,14.87
2019-01-13T14:30:00.229Z,13.73
2019-01-13T14:32:26.706Z,11.57
2019-01-13T14:34:53.112Z,14.97
2019-01-13T14:37:19.590Z,15.43
2019-01-13T14:39:48.870Z,12.97
2019-01-13T14:42:14.294Z,11.73
2019-01-13T14:44:41.561Z,11.97
2019-01-13T14:47:07.999Z,12.37
2019-01-13T14:49:34.477Z,11.60
2019-01-13T14:52:00.831Z,16.27
2019-01-13T14:54:27.297Z,13.97
2019-01-13T14:56:53.651Z,15.13
2019-01-13T14:59:20.073Z,13.03
2019-01-13T15:01:46.630Z,11.13
2019-01-13T15:04:13.062Z,12.17
2019-01-13T15:06:39.421Z,13.30
2019-01-13T15:09:08.255Z,13.53
2019-01-13T15:11:34.612Z,14.97
2019-01-13T15:14:01.045Z,12.70
2019-01-13T15:16:27.447Z,10.83
2019-01-13T15:18:53.818Z,9.83
2019-01-13T15:21:20.302Z,12.87
2019-01-13T15:23:46.656Z,11.13
2019-01-13T15:26:13.234Z,12.23
2019-01-13T15:28:39.844Z,9.07
2019-01-13T15:31:06.273Z,10.13
2019-01-13T15:33:33.866Z,9.77
2019-01-13T15:36:00.260Z,10.53
2019-01-13T15:38:26.878Z,12.53
2019-01-13T15:40:53.317Z,8.30
2019-01-13T15:43:19.712Z,11.67
2019-01-13T15:45:46.150Z,9.13
2019-01-13T15:48:12.584Z,9.50
2019-01-13T15:50:39.050Z,10.10
2019-01-13T15:53:05.614Z,10.07
2019-01-13T15:55:32.175Z,8.13
2019-01-13T15:57:58.527Z,13.07
2019-01-13T16:00:28.031Z,9.33
2019-01-13T16:02:54.419Z,11.00
2019-01-13T16:05:21.556Z,8.67
2019-01-13T16:07:48.389Z,7.83
2019-01-13T16:10:18.334Z,10.77
2019-01-13T16:12:45.191Z,9.50
2019-01-13T16:15:12.219Z,8.00
2019-01-13T16:17:38.936Z,8.53
2019-01-13T16:20:17.331Z,11.47
2019-01-13T16:22:43.921Z,9.13
2019-01-13T16:25:10.328Z,9.43
2019-01-13T16:27:36.940Z,9.77
2019-01-13T16:30:09.819Z,9.67
2019-01-13T16:32:38.408Z,8.77
2019-01-13T16:35:05.303Z,15.40
2019-01-13T16:37:31.855Z,8.77
2019-01-13T16:39:58.487Z,10.17
2019-01-13T16:42:24.908Z,10.10
2019-01-13T16:44:51.605Z,12.60
2019-01-13T16:47:18.187Z,9.20
2019-01-13T16:49:44.649Z,9.50
2019-01-13T16:52:11.097Z,7.80
2019-01-13T16:54:37.639Z,11.37
2019-01-13T16:57:04.201Z,9.33
2019-01-13T16:59:30.686Z,16.77
2019-01-13T17:01:57.220Z,8.60
2019-01-13T17:04:28.713Z,9.57
2019-01-13T17:06:53.131Z,11.40
2019-01-13T17:09:19.776Z,12.87
2019-01-13T17:11:46.243Z,11.93
2019-01-13T17:14:12.732Z,12.27
2019-01-13T17:16:39.205Z,12.43
2019-01-13T17:19:05.604Z,12.33
2019-01-13T17:21:32.043Z,12.70
2019-01-13T17:23:58.536Z,14.43
2019-01-13T17:26:24.997Z,15.37
2019-01-13T17:28:51.349Z,13.50
2019-01-13T17:31:17.755Z,14.20
2019-01-13T17:33:44.125Z,15.93
2019-01-13T17:36:10.535Z,14.67
2019-01-13T17:38:36.885Z,17.30
2019-01-13T17:41:04.288Z,15.00
2019-01-13T17:43:30.660Z,16.57
2019-01-13T17:45:57.120Z,17.30
2019-01-13T17:48:23.666Z,16.67
2019-01-13T17:50:50.363Z,16.40
2019-01-13T17:53:16.744Z,17.87
2019-01-13T17:55:43.280Z,17.60
2019-01-13T17:58:09.704Z,19.67
2019-01-13T18:00:39.729Z,21.93
2019-01-13T18:03:09.493Z,20.47
2019-01-13T18:05:35.924Z,19.30
2019-01-13T18:08:02.307Z,18.63
2019-01-13T18:10:28.800Z,21.30
2019-01-13T18:12:55.222Z,22.40
2019-01-13T18:15:21.593Z,22.67
2019-01-13T18:17:47.968Z,20.17
2019-01-13T18:20:21.036Z,24.33
2019-01-13T18:22:48.599Z,19.90
2019-01-13T18:25:14.962Z,23.20
2019-01-13T18:27:41.377Z,23.57
2019-01-13T18:30:11.586Z,26.67
2019-01-13T18:32:38.092Z,21.67
2019-01-13T18:35:07.474Z,26.10
2019-01-13T18:37:33.828Z,20.87
2019-01-13T18:40:00.208Z,21.23
2019-01-13T18:42:26.569Z,22.00
2019-01-13T18:44:52.964Z,23.57
2019-01-13T18:47:19.379Z,21.90
2019-01-13T18:49:45.706Z,23.07
2019-01-13T18:52:12.141Z,20.93
2019-01-13T18:54:39.500Z,23.50
2019-01-13T18:57:05.944Z,22.70
2019-01-13T18:59:32.318Z,22.93
2019-01-13T19:01:58.716Z,23.60
2019-01-13T19:04:25.074Z,25.43
2019-01-13T19:06:51.524Z,32.13
2019-01-13T19:09:17.926Z,25.73
2019-01-13T19:11:44.352Z,24.53
2019-01-13T19:14:17.563Z,26.53
2019-01-13T19:16:47.900Z,27.37
2019-01-13T19:19:14.269Z,27.13
2019-01-13T19:21:40.705Z,29.90
2019-01-13T19:24:07.033Z,26.40
2019-01-13T19:26:33.441Z,27.83
2019-01-13T19:28:59.800Z,26.33
2019-01-13T19:31:26.183Z,28.33
2019-01-13T19:33:52.536Z,27.60
2019-01-13T19:36:18.942Z,31.27
2019-01-13T19:38:45.336Z,29.03
2019-01-13T19:41:11.747Z,27.37
2019-01-13T19:43:38.577Z,27.13
2019-01-13T19:46:05.275Z,27.60
2019-01-13T19:48:31.741Z,27.67
2019-01-13T19:50:58.261Z,28.57
2019-01-13T19:53:24.714Z,24.57
2019-01-13T19:55:51.192Z,21.73
2019-01-13T19:58:17.581Z,29.00
2019-01-13T20:00:44.078Z,29.67
2019-01-13T20:03:10.454Z,24.77
2019-01-13T20:05:37.019Z,27.20
2019-01-13T20:08:04.699Z,28.23
2019-01-13T20:10:31.135Z,25.53
2019-01-13T20:12:57.696Z,29.67
2019-01-13T20:15:24.121Z,26.57
2019-01-13T20:17:50.537Z,24.70
2019-01-13T20:20:18.991Z,23.90
2019-01-13T20:22:46.150Z,22.47
2019-01-13T20:25:15.377Z,26.97
2019-01-13T20:27:42.000Z,23.63
2019-01-13T20:30:30.332Z,23.43
2019-01-13T20:32:57.871Z,23.10
2019-01-13T20:35:24.713Z,24.50
2019-01-13T20:37:51.977Z,28.90
2019-01-13T20:40:19.173Z,22.53
2019-01-13T20:42:46.732Z,20.10
2019-01-13T20:45:21.664Z,21.03
2019-01-13T20:47:48.346Z,18.03
2019-01-13T20:50:15.140Z,18.57
2019-01-13T20:52:42.587Z,13.57
2019-01-13T20:55:12.164Z,11.27
2019-01-13T20:57:39.766Z,10.80
2019-01-13T21:00:10.824Z,10.60
2019-01-13T21:02:38.599Z,10.03
2019-01-13T21:05:05.438Z,6.33
2019-01-13T21:07:32.383Z,9.67
2019-01-13T21:09:58.905Z,10.17
2019-01-13T21:12:26.498Z,8.77
2019-01-13T21:14:54.046Z,11.73
2019-01-13T21:17:20.578Z,6.80
2019-01-13T21:19:46.988Z,8.67
2019-01-13T21:22:13.385Z,7.20
2019-01-13T21:24:39.841Z,6.33
2019-01-13T21:27:06.284Z,22.23
2019-01-13T21:29:32.730Z,5.83
2019-01-13T21:31:59.153Z,7.07
2019-01-13T21:34:25.600Z,5.93
2019-01-13T21:36:52.241Z,7.40
2019-01-13T21:39:18.826Z,9.43
2019-01-13T21:41:45.166Z,6.30
2019-01-13T21:44:11.588Z,8.47
2019-01-13T21:46:38.007Z,8.63
2019-01-13T21:49:04.754Z,10.67
2019-01-13T21:51:31.293Z,10.47
2019-01-13T21:53:57.785Z,12.73
2019-01-13T21:56:24.330Z,7.10
2019-01-13T21:58:51.094Z,6.23
2019-01-13T22:01:17.641Z,10.77
2019-01-13T22:03:43.984Z,22.07
2019-01-13T22:06:10.429Z,7.30
2019-01-13T22:08:36.927Z,6.40
2019-01-13T22:11:03.602Z,13.33
2019-01-13T22:13:29.960Z,12.73
2019-01-13T22:15:56.406Z,18.63
2019-01-13T22:18:22.811Z,16.33
2019-01-13T22:20:49.157Z,6.13
2019-01-13T22:23:17.098Z,15.17
2019-01-13T22:25:43.545Z,12.27
2019-01-13T22:28:09.943Z,5.50
2019-01-13T22:30:36.309Z,32.10
2019-01-13T22:33:02.730Z,5.03
2019-01-13T22:35:29.172Z,7.53
2019-01-13T22:37:56.160Z,14.57
2019-01-13T22:40:22.654Z,47.90
2019-01-13T22:42:49.075Z,53.57
2019-01-13T22:45:20.733Z,51.00
2019-01-13T22:47:47.139Z,47.67
2019-01-13T22:50:14.804Z,11.97
2019-01-13T22:52:41.222Z,21.80
2019-01-13T22:55:08.523Z,11.50
2019-01-13T22:57:34.935Z,65.00
2019-01-13T23:00:05.368Z,83.37
2019-01-13T23:02:33.420Z,33.63
2019-01-13T23:05:00.016Z,38.70
2019-01-13T23:07:26.384Z,23.37
2019-01-13T23:09:52.748Z,22.37
2019-01-13T23:12:19.123Z,18.23
2019-01-13T23:14:45.492Z,27.40
2019-01-13T23:17:11.851Z,18.47
2019-01-13T23:19:38.239Z,19.67
2019-01-13T23:22:04.586Z,18.70
2019-01-13T23:24:31.066Z,18.90
2019-01-13T23:26:57.641Z,50.40
2019-01-13T23:29:23.968Z,29.33
2019-01-13T23:31:50.608Z,11.53
2019-01-13T23:34:16.964Z,16.27
2019-01-13T23:36:43.404Z,11.40
2019-01-13T23:39:09.810Z,12.57
2019-01-13T23:41:36.257Z,6.83
2019-01-13T23:44:02.616Z,16.13
2019-01-13T23:46:29.110Z,10.00
2019-01-13T23:48:57.784Z,10.90
2019-01-13T23:51:24.263Z,10.00
2019-01-13T23:53:50.635Z,8.27
2019-01-13T23:56:16.988Z,7.47
2019-01-13T23:58:43.450Z,12.07
